createdAt,value
2023-05-10T00:07:24.303Z,97127.35
2023-05-10T00:17:27.438Z,97117.84
2023-05-10T00:27:30.593Z,97114.05
2023-05-10T00:37:33.685Z,97111.16
2023-05-10T00:47:37.066Z,97105.91
2023-05-10T00:57:40.689Z,97107.16
2023-05-10T01:07:43.905Z,97108.45
2023-05-10T01:17:49.351Z,97103.73
2023-05-10T01:28:22.793Z,97102.14
2023-05-10T01:38:48.371Z,97097.66
2023-05-10T01:48:58.850Z,97094.05
2023-05-10T01:59:09.856Z,97089.30
2023-05-10T02:09:15.405Z,97078.56
2023-05-10T02:19:19.859Z,97076.21
2023-05-10T02:29:25.764Z,97066.02
2023-05-10T02:39:29.772Z,97065.08
2023-05-10T02:49:33.790Z,97065.46
2023-05-10T02:59:37.102Z,97066.14
2023-05-10T03:09:41.341Z,97068.16
2023-05-10T03:19:57.751Z,97068.73
2023-05-10T03:30:03.457Z,97068.17
2023-05-10T03:40:10.121Z,97065.21
2023-05-10T03:50:15.395Z,97061.70
2023-05-10T04:00:19.230Z,97057.83
2023-05-10T04:10:24.257Z,97056.23
2023-05-10T04:20:27.569Z,97057.05
2023-05-10T04:30:30.743Z,97055.77
2023-05-10T04:40:34.081Z,97053.02
2023-05-10T04:50:37.699Z,97050.30
2023-05-10T05:00:40.951Z,97046.75
2023-05-10T05:10:44.227Z,97039.05
2023-05-10T05:20:47.506Z,97037.89
2023-05-10T05:30:50.623Z,97026.58
2023-05-10T05:40:53.790Z,97025.38
2023-05-10T05:50:57.797Z,97019.93
2023-05-10T06:01:01.043Z,97012.45
2023-05-10T06:11:05.281Z,97010.66
2023-05-10T06:21:08.751Z,97001.61
2023-05-10T06:31:13.059Z,97002.87
2023-05-10T06:41:16.220Z,97006.48
2023-05-10T06:51:19.454Z,97000.86
2023-05-10T07:01:22.697Z,96996.92
2023-05-10T07:11:26.047Z,96994.30
2023-05-10T07:21:29.980Z,96990.15
2023-05-10T07:31:33.132Z,96985.90
2023-05-10T07:41:36.293Z,96985.20
2023-05-10T07:51:39.494Z,96985.15
2023-05-10T08:01:43.453Z,96978.29
2023-05-10T08:11:46.484Z,96978.12
2023-05-10T08:21:50.076Z,96974.72
2023-05-10T08:31:53.267Z,96972.85
2023-05-10T08:42:00.672Z,96969.64
2023-05-10T08:52:06.643Z,96973.05
2023-05-10T09:02:12.888Z,96973.65
2023-05-10T09:12:16.763Z,96972.39
2023-05-10T09:22:19.900Z,96972.48
2023-05-10T09:32:22.973Z,96971.04
2023-05-10T09:42:26.526Z,96970.66
2023-05-10T09:52:29.782Z,96967.55
2023-05-10T10:02:33.262Z,96961.48
2023-05-10T10:12:36.913Z,96956.32
2023-05-10T10:22:40.127Z,96943.63
2023-05-10T10:33:03.922Z,96937.34
2023-05-10T10:43:26.647Z,96937.17
2023-05-10T10:53:30.205Z,96927.67
2023-05-10T11:03:33.168Z,96917.20
2023-05-10T11:13:50.965Z,96911.81
2023-05-10T11:23:59.908Z,96908.34
2023-05-10T11:34:03.053Z,96904.88
2023-05-10T11:44:06.195Z,96891.04
2023-05-10T11:54:11.548Z,96878.83
2023-05-10T12:04:14.939Z,96879.52
2023-05-10T12:14:20.629Z,96875.41
2023-05-10T12:24:26.482Z,96870.42
2023-05-10T12:34:37.289Z,96873.89
2023-05-10T12:44:41.006Z,96859.35
2023-05-10T12:54:44.102Z,96845.36
2023-05-10T13:04:48.943Z,96842.46
2023-05-10T13:14:54.026Z,96828.63
2023-05-10T13:24:57.294Z,96834.10
2023-05-10T13:35:00.537Z,96817.55
2023-05-10T13:45:03.893Z,96811.16
2023-05-10T13:55:07.349Z,96796.21
2023-05-10T14:05:10.540Z,96789.78
2023-05-10T14:15:13.740Z,96787.34
2023-05-10T14:25:17.167Z,96790.98
2023-05-10T14:35:21.507Z,96786.98
2023-05-10T14:45:25.118Z,96781.30
2023-05-10T14:55:28.251Z,96781.10
2023-05-10T15:05:31.365Z,96782.06
2023-05-10T15:15:34.943Z,96779.67
2023-05-10T15:25:38.646Z,96772.14
2023-05-10T15:35:42.213Z,96772.60
2023-05-10T15:45:45.346Z,96772.63
2023-05-10T15:55:48.790Z,96783.20
2023-05-10T16:05:51.891Z,96783.02
2023-05-10T16:15:55.283Z,96782.41
2023-05-10T16:25:58.656Z,96784.27
2023-05-10T16:36:01.680Z,96786.73
2023-05-10T16:46:10.818Z,96788.75
2023-05-10T16:56:14.054Z,96795.87
2023-05-10T17:06:17.069Z,96802.96
2023-05-10T17:16:21.511Z,96811.48
2023-05-10T17:26:25.063Z,96817.93
2023-05-10T17:36:28.640Z,96825.08
2023-05-10T17:46:31.712Z,96833.92
2023-05-10T17:56:34.948Z,96845.86
2023-05-10T18:06:38.475Z,96860.77
2023-05-10T18:16:43.278Z,96871.34
2023-05-10T18:26:47.204Z,96878.13
2023-05-10T18:36:50.345Z,96884.34
2023-05-10T18:46:54.382Z,96890.40
2023-05-10T18:56:58.948Z,96897.92
2023-05-10T19:07:03.234Z,96909.23
2023-05-10T19:17:06.351Z,96920.60
2023-05-10T19:27:12.181Z,96926.42
2023-05-10T19:37:17.520Z,96930.64
2023-05-10T19:47:20.534Z,96932.03
2023-05-10T19:57:24.197Z,96935.70
2023-05-10T20:07:27.267Z,96941.53
2023-05-10T20:17:30.480Z,96947.31
2023-05-10T20:27:33.698Z,96958.48
2023-05-10T20:37:38.068Z,96961.39
2023-05-10T20:47:41.314Z,96963.41
2023-05-10T20:57:45.290Z,96960.94
2023-05-10T21:07:49.492Z,96960.64
2023-05-10T21:17:54.096Z,96964.67
2023-05-10T21:27:57.238Z,96964.55
2023-05-10T21:38:00.362Z,96971.02
2023-05-10T21:48:03.866Z,96972.34
2023-05-10T21:58:07.149Z,96978.52
2023-05-10T22:08:10.134Z,96984.20
2023-05-10T22:18:13.217Z,96992.41
2023-05-10T22:28:16.497Z,97000.15
2023-05-10T22:38:19.670Z,97003.44
2023-05-10T22:48:22.776Z,97003.56
2023-05-10T22:58:26.619Z,97005.56
2023-05-10T23:08:29.622Z,97010.66
2023-05-10T23:18:32.778Z,97011.45
2023-05-10T23:28:35.846Z,97018.95
2023-05-10T23:38:39.571Z,97020.90
2023-05-10T23:48:42.880Z,97029.09
2023-05-10T23:58:46.496Z,97033.17
